Time;durP1;ratioP1;P1;durP2;ratioP2;P2;SDS_P1;SDS_P2;PMS_P1;PMS_P2;Temp;Humidity;BMP_temperature;BMP_pressure;BME280_temperature;BME280_humidity;BME280_pressure;Samples;Min_cycle;Max_cycle;Signal;HPM_P1;HPM_P2
2022/12/07 00:03:46;;;;;;;7.60;5.32;;;;;;;;;;8336154;28;20037;-64
2022/12/07 00:07:46;;;;;;;7.78;5.15;;;;;;;;;;8337865;28;20359;-63
2022/12/07 00:11:49;;;;;;;8.90;5.55;;;;;;;;;;8336136;28;20136;-64
2022/12/07 00:15:49;;;;;;;9.10;5.85;;;;;;;;;;8339137;28;20338;-64
2022/12/07 00:19:49;;;;;;;7.68;5.43;;;;;;;;;;8338508;28;20035;-64
2022/12/07 00:23:50;;;;;;;7.85;5.22;;;;;;;;;;8337133;28;20079;-64
2022/12/07 00:27:50;;;;;;;8.55;6.00;;;;;;;;;;8337131;28;20039;-64
2022/12/07 00:31:50;;;;;;;7.20;4.82;;;;;;;;;;8337054;28;20037;-64
2022/12/07 00:35:55;;;;;;;7.60;5.10;;;;;;;;;;8338764;28;20078;-64
2022/12/07 00:39:55;;;;;;;6.55;4.88;;;;;;;;;;8337830;28;20035;-64
2022/12/07 00:43:55;;;;;;;5.95;4.28;;;;;;;;;;8338098;28;20051;-64
2022/12/07 00:47:56;;;;;;;6.72;4.57;;;;;;;;;;8337963;28;20029;-64
2022/12/07 00:51:56;;;;;;;8.93;4.10;;;;;;;;;;8337128;28;20486;-64
2022/12/07 00:55:56;;;;;;;7.28;5.10;;;;;;;;;;8338514;28;20040;-64
2022/12/07 00:59:57;;;;;;;6.13;4.30;;;;;;;;;;8336081;28;20031;-64
2022/12/07 01:03:58;;;;;;;8.05;4.40;;;;;;;;;;8336500;28;20040;-64
2022/12/07 01:07:58;;;;;;;5.93;4.20;;;;;;;;;;8337229;28;20047;-63
2022/12/07 01:11:59;;;;;;;4.88;3.80;;;;;;;;;;8336165;28;20029;-63
2022/12/07 01:16:00;;;;;;;6.03;4.03;;;;;;;;;;8332579;28;20512;-69
2022/12/07 01:20:01;;;;;;;4.65;3.70;;;;;;;;;;8334805;28;20095;-64
2022/12/07 01:24:01;;;;;;;5.80;3.58;;;;;;;;;;8336087;28;20029;-64
2022/12/07 01:28:01;;;;;;;5.00;3.88;;;;;;;;;;8334928;28;20029;-63
2022/12/07 01:32:01;;;;;;;6.57;4.05;;;;;;;;;;8339494;28;20655;-63
2022/12/07 01:36:02;;;;;;;4.60;3.80;;;;;;;;;;8335018;28;20764;-64
2022/12/07 01:40:03;;;;;;;3.75;3.42;;;;;;;;;;8336257;28;20242;-64
2022/12/07 01:44:11;;;;;;;5.75;3.67;;;;;;;;;;8334825;28;20056;-64
2022/12/07 01:48:13;;;;;;;6.43;3.75;;;;;;;;;;8336829;28;20071;-64
2022/12/07 01:52:15;;;;;;;4.82;3.60;;;;;;;;;;8337909;28;20136;-64
2022/12/07 01:56:18;;;;;;;7.10;4.50;;;;;;;;;;8335133;28;20032;-63
2022/12/07 02:00:19;;;;;;;7.18;3.83;;;;;;;;;;8335092;28;20020;-64
2022/12/07 03:09:30;;;;;;;5.65;3.22;;;;;;;;;;8334933;28;20437;-63
2022/12/07 03:13:44;;;;;;;5.10;3.60;;;;;;;;;;8336575;28;20012;-64
2022/12/07 03:17:46;;;;;;;6.30;3.70;;;;;;;;;;8337030;28;20025;-64
2022/12/07 03:21:48;;;;;;;5.70;3.53;;;;;;;;;;8340219;28;20055;-65
2022/12/07 03:25:52;;;;;;;5.50;3.35;;;;;;;;;;8338074;28;20603;-64
2022/12/07 03:29:55;;;;;;;5.82;3.70;;;;;;;;;;8337827;28;20116;-64
2022/12/07 03:33:56;;;;;;;3.35;2.90;;;;;;;;;;8338872;28;20048;-64
2022/12/07 03:38:02;;;;;;;3.30;2.90;;;;;;;;;;8338590;28;20341;-65
2022/12/07 03:42:04;;;;;;;4.05;2.90;;;;;;;;;;8341395;28;20021;-64
2022/12/07 03:46:19;;;;;;;3.75;3.00;;;;;;;;;;8338517;28;20076;-63
2022/12/07 03:50:36;;;;;;;3.88;2.65;;;;;;;;;;8338378;28;20500;-64
2022/12/07 03:54:57;;;;;;;5.22;3.25;;;;;;;;;;8353142;28;20028;-63
2022/12/07 03:58:57;;;;;;;5.53;3.40;;;;;;;;;;8338237;28;20097;-64
2022/12/07 04:02:57;;;;;;;5.57;3.85;;;;;;;;;;8337331;28;20296;-63
2022/12/07 04:06:58;;;;;;;4.88;3.55;;;;;;;;;;8338008;28;20033;-64
2022/12/07 04:10:58;;;;;;;5.03;3.42;;;;;;;;;;8339297;28;20824;-64
2022/12/07 04:14:58;;;;;;;5.07;3.70;;;;;;;;;;8340132;28;20083;-64
2022/12/07 04:18:58;;;;;;;4.93;3.83;;;;;;;;;;8336177;28;20127;-65
2022/12/07 04:22:58;;;;;;;4.35;3.55;;;;;;;;;;8336233;28;20355;-64
2022/12/07 04:26:59;;;;;;;6.30;4.43;;;;;;;;;;8335879;28;20063;-63
2022/12/07 04:30:59;;;;;;;6.03;3.60;;;;;;;;;;8339180;28;20044;-63
2022/12/07 04:34:59;;;;;;;7.72;4.53;;;;;;;;;;8337185;28;20274;-63
2022/12/07 04:39:00;;;;;;;6.93;4.88;;;;;;;;;;8336432;28;20024;-63
2022/12/07 04:43:00;;;;;;;6.75;4.50;;;;;;;;;;8335366;28;20414;-64
2022/12/07 04:47:00;;;;;;;6.55;4.07;;;;;;;;;;8336116;28;20775;-67
2022/12/07 04:51:02;;;;;;;5.47;4.07;;;;;;;;;;8337598;28;20385;-63
2022/12/07 04:55:02;;;;;;;7.38;4.80;;;;;;;;;;8337861;28;20286;-64
2022/12/07 04:59:03;;;;;;;5.95;4.68;;;;;;;;;;8339190;28;20481;-65
2022/12/07 05:03:03;;;;;;;6.65;5.07;;;;;;;;;;8336141;28;20041;-63
2022/12/07 05:07:03;;;;;;;8.48;5.57;;;;;;;;;;8337490;28;20021;-64
2022/12/07 05:11:04;;;;;;;8.05;4.85;;;;;;;;;;8339118;28;20047;-64
2022/12/07 05:15:05;;;;;;;8.50;5.50;;;;;;;;;;8354969;28;20044;-63
2022/12/07 05:19:05;;;;;;;8.32;5.43;;;;;;;;;;8334967;28;20048;-64
2022/12/07 05:23:06;;;;;;;11.55;5.40;;;;;;;;;;8337435;28;20806;-64
2022/12/07 05:27:06;;;;;;;8.45;5.63;;;;;;;;;;8337368;28;20032;-64
2022/12/07 05:31:06;;;;;;;10.05;6.30;;;;;;;;;;8335596;28;20041;-63
2022/12/07 05:35:07;;;;;;;8.88;5.97;;;;;;;;;;8334855;28;20017;-63
2022/12/07 05:39:07;;;;;;;9.77;6.13;;;;;;;;;;8334258;28;20058;-63
2022/12/07 05:43:07;;;;;;;10.93;6.60;;;;;;;;;;8335970;28;20899;-63
2022/12/07 05:47:08;;;;;;;11.80;6.82;;;;;;;;;;8334601;28;20681;-63
2022/12/07 05:51:08;;;;;;;11.13;7.07;;;;;;;;;;8329834;28;20025;-63
2022/12/07 05:55:08;;;;;;;18.67;8.60;;;;;;;;;;8334402;28;20705;-63
2022/12/07 05:59:24;;;;;;;15.30;7.57;;;;;;;;;;8334059;28;20272;-64
2022/12/07 06:03:24;;;;;;;12.68;7.45;;;;;;;;;;8331233;28;20275;-63
2022/12/07 06:07:24;;;;;;;10.80;5.55;;;;;;;;;;8333849;28;20024;-65
2022/12/07 06:15:44;;;;;;;11.70;6.72;;;;;;;;;;8338201;28;20170;-63
2022/12/07 06:19:44;;;;;;;12.45;6.60;;;;;;;;;;8342252;28;20462;-63
2022/12/07 06:23:44;;;;;;;11.50;6.70;;;;;;;;;;8337315;28;20468;-63
2022/12/07 06:27:44;;;;;;;10.68;6.50;;;;;;;;;;8338077;28;20071;-64
2022/12/07 06:31:45;;;;;;;11.68;6.35;;;;;;;;;;8338782;28;20591;-64
2022/12/07 06:35:45;;;;;;;14.90;7.15;;;;;;;;;;8338769;28;20052;-63
2022/12/07 06:39:45;;;;;;;9.23;6.27;;;;;;;;;;8339151;28;20028;-64
2022/12/07 06:43:46;;;;;;;9.90;7.03;;;;;;;;;;8342673;28;20254;-63
2022/12/07 06:47:46;;;;;;;13.48;7.47;;;;;;;;;;8339038;28;20123;-63
2022/12/07 06:51:46;;;;;;;10.30;6.70;;;;;;;;;;8340696;28;20302;-64
2022/12/07 06:55:46;;;;;;;8.13;6.03;;;;;;;;;;8339030;28;20029;-63
2022/12/07 06:59:47;;;;;;;11.93;6.60;;;;;;;;;;8339530;28;20025;-63
2022/12/07 07:03:47;;;;;;;11.77;6.65;;;;;;;;;;8340671;28;20040;-64
2022/12/07 07:07:50;;;;;;;11.45;7.13;;;;;;;;;;8335941;28;20319;-63
2022/12/07 07:11:50;;;;;;;9.95;6.95;;;;;;;;;;8334038;28;20502;-62
2022/12/07 07:15:50;;;;;;;10.00;6.85;;;;;;;;;;8331528;28;20090;-63
2022/12/07 07:19:50;;;;;;;11.95;7.53;;;;;;;;;;8330672;28;20039;-62
2022/12/07 07:23:51;;;;;;;10.77;7.25;;;;;;;;;;8333261;28;20033;-63
2022/12/07 07:27:52;;;;;;;11.30;6.90;;;;;;;;;;8330438;28;20499;-61
2022/12/07 07:31:52;;;;;;;10.45;6.75;;;;;;;;;;8331284;28;20049;-63
2022/12/07 07:35:52;;;;;;;9.23;6.75;;;;;;;;;;8332492;28;20469;-63
2022/12/07 07:39:52;;;;;;;9.65;6.47;;;;;;;;;;8332599;28;20025;-63
2022/12/07 07:43:52;;;;;;;10.82;6.88;;;;;;;;;;8332348;28;20245;-63
2022/12/07 07:47:53;;;;;;;9.93;7.03;;;;;;;;;;8329695;28;20495;-62
2022/12/07 07:51:53;;;;;;;15.70;10.05;;;;;;;;;;8331532;28;20605;-62
2022/12/07 07:55:54;;;;;;;12.52;8.50;;;;;;;;;;8331887;28;20031;-62
2022/12/07 07:59:54;;;;;;;14.32;9.02;;;;;;;;;;8333836;28;20021;-64
2022/12/07 08:03:54;;;;;;;10.75;7.25;;;;;;;;;;8330202;28;20059;-62
2022/12/07 08:07:54;;;;;;;12.05;7.55;;;;;;;;;;8331999;28;20127;-62
2022/12/07 08:11:54;;;;;;;11.50;7.15;;;;;;;;;;8331383;28;20144;-63
2022/12/07 08:15:55;;;;;;;15.73;7.40;;;;;;;;;;8333659;28;20147;-63
2022/12/07 08:19:56;;;;;;;16.30;6.10;;;;;;;;;;8333309;28;20040;-63
2022/12/07 08:23:57;;;;;;;13.55;6.82;;;;;;;;;;8330366;28;20048;-63
2022/12/07 08:27:57;;;;;;;13.07;7.15;;;;;;;;;;8329453;28;20604;-63
2022/12/07 08:31:57;;;;;;;11.73;7.28;;;;;;;;;;8330429;28;20040;-63
2022/12/07 08:36:01;;;;;;;11.05;7.22;;;;;;;;;;8331197;28;20026;-63
2022/12/07 08:40:01;;;;;;;10.02;6.63;;;;;;;;;;8330535;28;20098;-63
2022/12/07 08:44:02;;;;;;;11.85;6.55;;;;;;;;;;8329007;28;20025;-64
2022/12/07 08:48:10;;;;;;;12.65;6.72;;;;;;;;;;8330837;28;20410;-63
2022/12/07 08:52:10;;;;;;;12.52;8.18;;;;;;;;;;8329517;28;20403;-63
2022/12/07 08:56:11;;;;;;;12.68;8.13;;;;;;;;;;8331714;28;20130;-64
2022/12/07 09:00:11;;;;;;;10.15;6.90;;;;;;;;;;8330310;28;20481;-64
2022/12/07 09:04:12;;;;;;;12.90;7.05;;;;;;;;;;8336977;28;20043;-64
2022/12/07 09:08:12;;;;;;;8.70;5.70;;;;;;;;;;8337013;28;20316;-63
2022/12/07 09:12:12;;;;;;;8.63;6.20;;;;;;;;;;8340347;28;20064;-64
2022/12/07 09:16:12;;;;;;;10.23;6.00;;;;;;;;;;8338215;28;20260;-64
2022/12/07 09:20:13;;;;;;;8.45;5.97;;;;;;;;;;8333224;28;20073;-64
2022/12/07 09:24:13;;;;;;;9.45;6.53;;;;;;;;;;8337511;28;20031;-64
2022/12/07 09:28:13;;;;;;;8.18;5.32;;;;;;;;;;8337445;28;20028;-64
2022/12/07 09:32:13;;;;;;;6.28;4.30;;;;;;;;;;8335401;28;20378;-63
2022/12/07 09:36:13;;;;;;;7.07;4.90;;;;;;;;;;8334574;28;20040;-64
2022/12/07 09:40:16;;;;;;;6.57;4.78;;;;;;;;;;8333784;28;20028;-64
2022/12/07 09:44:23;;;;;;;5.47;4.30;;;;;;;;;;8342718;28;20316;-64
2022/12/07 09:48:29;;;;;;;4.18;3.63;;;;;;;;;;8336895;28;20061;-64
2022/12/07 09:52:30;;;;;;;5.57;3.75;;;;;;;;;;8336510;28;20028;-64
2022/12/07 09:56:30;;;;;;;4.55;3.40;;;;;;;;;;8332800;28;20030;-64
2022/12/07 10:00:31;;;;;;;4.85;2.92;;;;;;;;;;8333124;28;20516;-63
2022/12/07 10:04:31;;;;;;;3.72;2.90;;;;;;;;;;8334923;28;20648;-63
2022/12/07 10:08:32;;;;;;;5.60;3.10;;;;;;;;;;8334632;28;20025;-64
2022/12/07 10:12:52;;;;;;;6.45;3.55;;;;;;;;;;8332266;28;20484;-64
2022/12/07 10:16:52;;;;;;;9.48;4.25;;;;;;;;;;8329500;28;20071;-64
2022/12/07 10:21:03;;;;;;;4.53;2.72;;;;;;;;;;8335755;28;20389;-64
2022/12/07 10:25:31;;;;;;;4.53;2.92;;;;;;;;;;8333903;28;20025;-64
2022/12/07 10:29:37;;;;;;;8.40;3.47;;;;;;;;;;8331019;28;20118;-64
2022/12/07 10:33:38;;;;;;;6.13;3.70;;;;;;;;;;8331626;28;20040;-64
2022/12/07 10:37:41;;;;;;;5.18;2.80;;;;;;;;;;8332445;28;20074;-63
2022/12/07 10:41:54;;;;;;;4.82;2.83;;;;;;;;;;8332260;28;20526;-64
2022/12/07 10:46:07;;;;;;;8.20;3.67;;;;;;;;;;8331326;28;20819;-63
2022/12/07 10:50:16;;;;;;;5.22;2.47;;;;;;;;;;8332265;28;20032;-63
2022/12/07 10:54:25;;;;;;;3.63;2.20;;;;;;;;;;8333199;28;20025;-64
2022/12/07 10:58:36;;;;;;;4.93;1.75;;;;;;;;;;8338424;28;20039;-64
2022/12/07 11:02:47;;;;;;;3.47;1.70;;;;;;;;;;8342235;28;20126;-63
2022/12/07 11:07:11;;;;;;;4.03;2.05;;;;;;;;;;8341695;28;20087;-63
2022/12/07 11:11:29;;;;;;;2.40;1.70;;;;;;;;;;8339194;28;20433;-64
2022/12/07 11:15:40;;;;;;;5.47;1.90;;;;;;;;;;8343227;28;20470;-65
2022/12/07 11:19:51;;;;;;;3.22;1.48;;;;;;;;;;8341568;28;20472;-64
2022/12/07 11:24:00;;;;;;;5.40;2.08;;;;;;;;;;8341824;28;20032;-63
2022/12/07 11:28:18;;;;;;;4.43;2.28;;;;;;;;;;8339291;28;20033;-64
2022/12/07 11:32:19;;;;;;;3.30;1.60;;;;;;;;;;8336236;28;20036;-64
2022/12/07 11:36:28;;;;;;;2.05;1.40;;;;;;;;;;8342009;28;20025;-64
2022/12/07 11:40:36;;;;;;;2.78;1.38;;;;;;;;;;8338229;28;20455;-63
2022/12/07 11:44:47;;;;;;;2.88;1.70;;;;;;;;;;8339321;28;20359;-63
2022/12/07 11:48:51;;;;;;;2.33;1.77;;;;;;;;;;8344448;28;20119;-64
2022/12/07 11:52:57;;;;;;;2.20;1.40;;;;;;;;;;8340654;28;20107;-64
2022/12/07 11:57:03;;;;;;;2.33;1.27;;;;;;;;;;8338471;28;20029;-64
2022/12/07 12:01:06;;;;;;;5.10;2.58;;;;;;;;;;8336488;28;20156;-64
2022/12/07 12:05:06;;;;;;;3.72;1.70;;;;;;;;;;8336811;28;20071;-63
2022/12/07 12:09:06;;;;;;;2.20;1.58;;;;;;;;;;8338538;28;20024;-61
2022/12/07 12:13:16;;;;;;;5.03;1.77;;;;;;;;;;8338036;28;20021;-64
2022/12/07 12:17:22;;;;;;;3.13;1.65;;;;;;;;;;8339358;28;20040;-63
2022/12/07 12:21:29;;;;;;;3.33;1.30;;;;;;;;;;8341769;28;20021;-65
2022/12/07 12:25:31;;;;;;;3.00;1.40;;;;;;;;;;8337381;28;20017;-64
2022/12/07 12:29:33;;;;;;;1.42;1.00;;;;;;;;;;8339793;28;20689;-63
2022/12/07 12:33:34;;;;;;;3.72;1.30;;;;;;;;;;8340396;28;20041;-64
2022/12/07 12:37:34;;;;;;;3.58;1.63;;;;;;;;;;8337844;28;20120;-64
2022/12/07 12:41:35;;;;;;;2.27;1.30;;;;;;;;;;8340434;28;20886;-62
2022/12/07 12:45:35;;;;;;;4.53;1.90;;;;;;;;;;8337618;28;20493;-64
2022/12/07 12:49:36;;;;;;;3.67;1.70;;;;;;;;;;8338415;28;20032;-64
2022/12/07 12:53:37;;;;;;;1.77;1.25;;;;;;;;;;8336847;28;20518;-64
2022/12/07 12:57:37;;;;;;;4.07;1.50;;;;;;;;;;8337273;28;20165;-63
2022/12/07 13:01:41;;;;;;;5.60;2.13;;;;;;;;;;8335549;28;20095;-64
2022/12/07 13:05:43;;;;;;;2.53;1.60;;;;;;;;;;8336578;28;20047;-63
2022/12/07 13:09:44;;;;;;;7.32;1.70;;;;;;;;;;8338274;28;20103;-63
2022/12/07 13:13:44;;;;;;;6.07;2.08;;;;;;;;;;8329757;28;20090;-62
2022/12/07 13:17:47;;;;;;;3.10;2.10;;;;;;;;;;8329149;28;21074;-62
2022/12/07 13:21:47;;;;;;;5.90;2.47;;;;;;;;;;8329472;28;20025;-63
2022/12/07 13:25:50;;;;;;;4.18;1.98;;;;;;;;;;8329073;28;20454;-62
2022/12/07 13:29:51;;;;;;;3.35;1.90;;;;;;;;;;8330978;28;20486;-62
2022/12/07 13:33:51;;;;;;;2.80;1.70;;;;;;;;;;8326001;28;20389;-62
2022/12/07 13:37:51;;;;;;;3.55;1.70;;;;;;;;;;8325898;28;21175;-63
2022/12/07 13:41:56;;;;;;;3.13;2.00;;;;;;;;;;8328137;28;20044;-62
2022/12/07 13:45:57;;;;;;;4.03;1.63;;;;;;;;;;8326372;28;20362;-62
2022/12/07 13:49:57;;;;;;;2.88;1.48;;;;;;;;;;8336314;28;20114;-64
2022/12/07 13:54:00;;;;;;;3.75;1.60;;;;;;;;;;8333180;28;20044;-63
2022/12/07 13:58:00;;;;;;;5.50;1.55;;;;;;;;;;8336170;28;20772;-64
2022/12/07 14:02:00;;;;;;;5.68;1.80;;;;;;;;;;8333133;28;20188;-63
2022/12/07 14:06:27;;;;;;;2.35;1.23;;;;;;;;;;8334913;28;20064;-62
2022/12/07 14:10:28;;;;;;;3.30;1.88;;;;;;;;;;8331930;28;20093;-63
2022/12/07 14:14:30;;;;;;;3.83;1.65;;;;;;;;;;8333166;28;20131;-63
2022/12/07 14:18:36;;;;;;;2.38;1.40;;;;;;;;;;8347937;28;20098;-64
2022/12/07 14:22:37;;;;;;;2.25;1.90;;;;;;;;;;8334412;28;20040;-63
2022/12/07 14:26:39;;;;;;;4.38;1.50;;;;;;;;;;8334477;28;20140;-63
2022/12/07 14:30:41;;;;;;;1.65;1.27;;;;;;;;;;8338416;28;20641;-63
2022/12/07 14:34:41;;;;;;;3.00;1.30;;;;;;;;;;8343538;28;20025;-63
2022/12/07 14:38:41;;;;;;;4.50;1.90;;;;;;;;;;8338143;28;20067;-64
2022/12/07 14:42:43;;;;;;;5.20;1.50;;;;;;;;;;8339048;28;20289;-63
2022/12/07 14:46:43;;;;;;;3.20;1.50;;;;;;;;;;8338069;28;20910;-63
2022/12/07 14:50:49;;;;;;;2.03;1.80;;;;;;;;;;8336544;28;20033;-63
2022/12/07 14:54:49;;;;;;;3.28;1.90;;;;;;;;;;8338373;28;20021;-63
2022/12/07 14:58:50;;;;;;;2.95;1.73;;;;;;;;;;8339034;28;20035;-63
2022/12/07 15:02:50;;;;;;;4.43;1.63;;;;;;;;;;8339413;28;20405;-64
2022/12/07 15:06:58;;;;;;;2.80;1.33;;;;;;;;;;8335032;28;20025;-62
2022/12/07 15:10:58;;;;;;;2.58;1.40;;;;;;;;;;8335923;28;20029;-62
2022/12/07 15:14:58;;;;;;;3.88;1.55;;;;;;;;;;8339872;28;20020;-64
2022/12/07 15:18:58;;;;;;;1.50;1.40;;;;;;;;;;8339446;28;20673;-64
2022/12/07 15:22:58;;;;;;;4.83;1.50;;;;;;;;;;8335626;28;20119;-63
2022/12/07 15:26:59;;;;;;;2.92;1.60;;;;;;;;;;8338273;28;20262;-63
2022/12/07 15:30:59;;;;;;;2.90;1.60;;;;;;;;;;8336600;28;20043;-63
2022/12/07 15:34:59;;;;;;;3.70;1.42;;;;;;;;;;8338683;28;20025;-63
2022/12/07 15:38:59;;;;;;;2.15;1.88;;;;;;;;;;8337001;28;20031;-63
2022/12/07 15:43:00;;;;;;;3.75;2.90;;;;;;;;;;8338183;28;20029;-62
2022/12/07 15:47:00;;;;;;;5.70;2.22;;;;;;;;;;8337101;28;20067;-63
2022/12/07 15:51:05;;;;;;;5.25;3.10;;;;;;;;;;8338115;28;20379;-64
2022/12/07 15:55:06;;;;;;;6.32;2.00;;;;;;;;;;8336901;28;21058;-63
2022/12/07 15:59:06;;;;;;;4.20;2.10;;;;;;;;;;8338200;28;20055;-63
2022/12/07 16:03:06;;;;;;;3.50;2.13;;;;;;;;;;8333028;28;20272;-64
2022/12/07 16:07:08;;;;;;;4.60;2.40;;;;;;;;;;8336235;28;20326;-63
2022/12/07 16:11:08;;;;;;;3.90;2.30;;;;;;;;;;8336298;28;20363;-64
2022/12/07 16:15:08;;;;;;;2.63;2.05;;;;;;;;;;8336162;28;20466;-64
2022/12/07 16:19:09;;;;;;;2.53;1.88;;;;;;;;;;8334565;28;20012;-63
2022/12/07 16:23:09;;;;;;;3.45;1.80;;;;;;;;;;8336500;28;20031;-62
2022/12/07 16:27:09;;;;;;;4.13;2.25;;;;;;;;;;8333712;28;20031;-63
2022/12/07 16:31:14;;;;;;;2.67;2.15;;;;;;;;;;8334527;28;20037;-63
2022/12/07 16:35:14;;;;;;;4.82;2.30;;;;;;;;;;8333356;28;20068;-62
2022/12/07 16:39:15;;;;;;;6.07;2.60;;;;;;;;;;8326306;28;20047;-63
2022/12/07 16:43:16;;;;;;;4.28;2.50;;;;;;;;;;8331419;28;20259;-63
2022/12/07 16:47:16;;;;;;;3.63;2.38;;;;;;;;;;8325600;28;20037;-63
2022/12/07 16:51:16;;;;;;;3.03;2.10;;;;;;;;;;8325579;28;20054;-64
2022/12/07 16:55:16;;;;;;;4.50;1.92;;;;;;;;;;8326739;28;20028;-62
2022/12/07 16:59:17;;;;;;;5.13;2.50;;;;;;;;;;8326466;28;20464;-62
2022/12/07 17:03:17;;;;;;;2.47;2.20;;;;;;;;;;8322722;28;20498;-62
2022/12/07 17:07:17;;;;;;;6.00;2.75;;;;;;;;;;8327904;28;20016;-62
2022/12/07 17:11:22;;;;;;;3.70;2.60;;;;;;;;;;8325606;28;20459;-63
2022/12/07 17:15:22;;;;;;;4.10;2.90;;;;;;;;;;8322507;28;20433;-62
2022/12/07 17:19:23;;;;;;;4.30;3.50;;;;;;;;;;8326566;28;20048;-62
2022/12/07 17:23:24;;;;;;;6.53;3.63;;;;;;;;;;8324822;28;20133;-62
2022/12/07 17:27:25;;;;;;;8.30;4.05;;;;;;;;;;8327963;28;20815;-63
2022/12/07 17:31:25;;;;;;;7.32;4.07;;;;;;;;;;8332581;28;20744;-63
2022/12/07 17:35:27;;;;;;;9.15;5.32;;;;;;;;;;8337554;28;20021;-64
2022/12/07 17:39:27;;;;;;;6.07;4.13;;;;;;;;;;8339157;28;20126;-64
2022/12/07 17:43:27;;;;;;;8.45;4.32;;;;;;;;;;8339159;28;20477;-63
2022/12/07 17:47:28;;;;;;;7.15;4.38;;;;;;;;;;8338208;28;20060;-63
2022/12/07 17:55:47;;;;;;;7.55;5.15;;;;;;;;;;8337362;28;20136;-63
2022/12/07 17:59:48;;;;;;;7.25;4.65;;;;;;;;;;8338319;28;20108;-64
2022/12/07 18:03:48;;;;;;;6.68;4.80;;;;;;;;;;8338430;28;20043;-64
2022/12/07 18:07:49;;;;;;;6.63;4.30;;;;;;;;;;8337509;28;20111;-63
2022/12/07 18:11:49;;;;;;;7.03;4.50;;;;;;;;;;8339864;28;20052;-63
2022/12/07 18:15:54;;;;;;;8.20;4.60;;;;;;;;;;8325803;28;20268;-64
2022/12/07 18:19:55;;;;;;;7.25;4.65;;;;;;;;;;8325077;28;20029;-64
2022/12/07 18:23:57;;;;;;;7.25;4.75;;;;;;;;;;8331306;28;20626;-63
2022/12/07 18:27:57;;;;;;;8.35;4.38;;;;;;;;;;8323299;28;20651;-62
2022/12/07 18:31:57;;;;;;;7.10;5.03;;;;;;;;;;8323631;28;20036;-62
2022/12/07 18:35:58;;;;;;;7.55;4.45;;;;;;;;;;8322894;28;20032;-62
2022/12/07 18:39:58;;;;;;;7.25;4.47;;;;;;;;;;8324024;28;20102;-62
2022/12/07 18:43:59;;;;;;;8.07;5.07;;;;;;;;;;8322581;28;20088;-62
2022/12/07 18:47:59;;;;;;;8.48;5.00;;;;;;;;;;8322615;28;20043;-62
2022/12/07 18:51:59;;;;;;;7.32;5.28;;;;;;;;;;8323126;28;20378;-62
2022/12/07 18:56:19;;;;;;;9.73;5.68;;;;;;;;;;8319939;28;20079;-62
2022/12/07 19:00:19;;;;;;;8.27;5.18;;;;;;;;;;8320167;28;20025;-63
2022/12/07 19:04:20;;;;;;;5.95;4.40;;;;;;;;;;8320989;28;20021;-62
2022/12/07 19:08:20;;;;;;;8.73;5.25;;;;;;;;;;8321110;28;20344;-62
2022/12/07 19:12:20;;;;;;;7.75;4.70;;;;;;;;;;8323360;28;20546;-62
2022/12/07 19:16:20;;;;;;;8.90;5.13;;;;;;;;;;8323618;28;20603;-62
2022/12/07 19:20:21;;;;;;;7.30;5.20;;;;;;;;;;8325194;28;20513;-62
2022/12/07 19:24:21;;;;;;;8.68;5.20;;;;;;;;;;8336612;28;20035;-62
2022/12/07 19:28:21;;;;;;;13.15;6.60;;;;;;;;;;8325948;28;20337;-63
2022/12/07 19:32:21;;;;;;;12.98;6.63;;;;;;;;;;8323065;28;20044;-62
2022/12/07 19:36:21;;;;;;;9.75;6.20;;;;;;;;;;8326634;28;20555;-62
2022/12/07 19:40:22;;;;;;;11.00;6.97;;;;;;;;;;8327552;28;20870;-62
2022/12/07 19:44:26;;;;;;;9.93;6.07;;;;;;;;;;8325338;28;20453;-62
2022/12/07 19:48:26;;;;;;;12.25;6.95;;;;;;;;;;8326808;28;20032;-63
2022/12/07 19:52:26;;;;;;;14.43;7.00;;;;;;;;;;8324279;28;20035;-62
2022/12/07 19:56:28;;;;;;;14.95;7.38;;;;;;;;;;8325213;28;20144;-62
2022/12/07 20:00:28;;;;;;;11.38;6.60;;;;;;;;;;8328719;28;20664;-62
2022/12/07 20:04:29;;;;;;;13.15;7.28;;;;;;;;;;8327351;28;20086;-62
2022/12/07 20:08:29;;;;;;;13.18;7.13;;;;;;;;;;8321573;28;20028;-62
2022/12/07 20:16:48;;;;;;;9.18;6.30;;;;;;;;;;8326557;28;20048;-63
2022/12/07 20:20:58;;;;;;;13.38;7.55;;;;;;;;;;8328046;28;20025;-61
2022/12/07 20:24:58;;;;;;;13.85;7.68;;;;;;;;;;8325071;28;20028;-63
2022/12/07 20:28:58;;;;;;;10.57;6.75;;;;;;;;;;8323497;28;20028;-62
2022/12/07 20:32:58;;;;;;;9.98;7.05;;;;;;;;;;8324952;28;20048;-62
2022/12/07 20:36:59;;;;;;;10.45;6.75;;;;;;;;;;8327791;28;20016;-62
2022/12/07 20:41:00;;;;;;;13.32;6.75;;;;;;;;;;8323586;28;20025;-62
2022/12/07 20:45:02;;;;;;;12.40;6.43;;;;;;;;;;8332529;28;20531;-62
2022/12/07 20:49:03;;;;;;;11.68;6.38;;;;;;;;;;8327812;28;20069;-63
2022/12/07 20:53:03;;;;;;;8.32;5.80;;;;;;;;;;8320404;28;20408;-62
2022/12/07 20:57:03;;;;;;;12.68;5.72;;;;;;;;;;8328349;28;20594;-62
2022/12/07 21:01:03;;;;;;;10.02;5.93;;;;;;;;;;8321753;28;20499;-62
2022/12/07 21:05:04;;;;;;;8.47;5.70;;;;;;;;;;8325453;28;20095;-62
2022/12/07 21:09:04;;;;;;;11.10;6.03;;;;;;;;;;8325919;28;20799;-63
2022/12/07 21:13:04;;;;;;;8.77;5.97;;;;;;;;;;8327492;28;20850;-62
2022/12/07 21:17:04;;;;;;;11.40;6.13;;;;;;;;;;8323217;28;20453;-63
2022/12/07 21:21:05;;;;;;;10.85;6.57;;;;;;;;;;8326887;28;20874;-62
2022/12/07 21:25:05;;;;;;;10.52;6.75;;;;;;;;;;8326761;28;20020;-62
2022/12/07 21:29:06;;;;;;;11.13;7.60;;;;;;;;;;8326011;28;20548;-62
2022/12/07 21:33:06;;;;;;;11.30;7.03;;;;;;;;;;8324770;28;20037;-62
2022/12/07 21:37:06;;;;;;;11.13;7.43;;;;;;;;;;8323844;28;20094;-63
2022/12/07 21:41:19;;;;;;;10.20;6.45;;;;;;;;;;8323050;28;20028;-62
2022/12/07 21:45:19;;;;;;;11.13;6.68;;;;;;;;;;8325570;28;20067;-62
2022/12/07 21:49:19;;;;;;;9.48;6.53;;;;;;;;;;8323002;28;20102;-61
2022/12/07 21:53:19;;;;;;;11.43;6.90;;;;;;;;;;8324624;28;20115;-62
2022/12/07 21:57:20;;;;;;;11.23;7.38;;;;;;;;;;8326329;28;20025;-62
2022/12/07 22:01:21;;;;;;;9.60;6.82;;;;;;;;;;8329547;28;20669;-62
2022/12/07 22:05:21;;;;;;;13.65;8.30;;;;;;;;;;8324776;28;20027;-62
2022/12/07 22:09:22;;;;;;;10.23;7.22;;;;;;;;;;8321799;28;20459;-62
2022/12/07 22:15:04;;;;;;;10.93;7.18;;;;;;;;;;8322684;28;20097;-61
2022/12/07 22:17:42;;;;;;;11.27;7.60;;;;;;;;;;8322643;28;20577;-61
2022/12/07 22:21:42;;;;;;;13.23;7.85;;;;;;;;;;8322141;28;20175;-61
2022/12/07 22:25:42;;;;;;;12.13;8.00;;;;;;;;;;8323991;28;20063;-62
2022/12/07 22:29:43;;;;;;;12.23;8.02;;;;;;;;;;8323778;28;20029;-61
2022/12/07 22:33:43;;;;;;;15.75;9.07;;;;;;;;;;8324140;28;20044;-61
2022/12/07 22:37:43;;;;;;;13.18;8.77;;;;;;;;;;8319496;28;20021;-62
2022/12/07 22:41:43;;;;;;;14.48;9.60;;;;;;;;;;8324016;28;20163;-62
2022/12/07 22:45:52;;;;;;;12.20;7.82;;;;;;;;;;8323180;28;20396;-62
2022/12/07 22:49:52;;;;;;;17.70;8.85;;;;;;;;;;8325454;28;20023;-61
2022/12/07 22:53:53;;;;;;;11.97;8.30;;;;;;;;;;8331305;28;20028;-62
2022/12/07 22:57:53;;;;;;;11.82;8.07;;;;;;;;;;8334942;28;20589;-61
2022/12/07 23:01:54;;;;;;;12.00;8.18;;;;;;;;;;8332003;28;20049;-61
2022/12/07 23:05:54;;;;;;;13.70;8.80;;;;;;;;;;8332554;28;20958;-62
2022/12/07 23:09:54;;;;;;;12.63;8.68;;;;;;;;;;8335934;28;20048;-63
2022/12/07 23:13:54;;;;;;;14.48;9.65;;;;;;;;;;8334089;28;20031;-62
2022/12/07 23:17:54;;;;;;;15.07;9.65;;;;;;;;;;8334070;28;20210;-61
2022/12/07 23:21:55;;;;;;;17.98;9.90;;;;;;;;;;8333791;28;20033;-62
2022/12/07 23:26:00;;;;;;;13.65;9.07;;;;;;;;;;8331792;28;20024;-62
2022/12/07 23:30:00;;;;;;;13.95;9.50;;;;;;;;;;8331520;28;20442;-61
2022/12/07 23:34:00;;;;;;;13.38;8.82;;;;;;;;;;8330830;28;20037;-62
2022/12/07 23:38:01;;;;;;;15.68;9.13;;;;;;;;;;8330155;28;20029;-61
2022/12/07 23:42:01;;;;;;;14.68;10.02;;;;;;;;;;8331611;28;20277;-62
2022/12/07 23:46:01;;;;;;;15.32;8.98;;;;;;;;;;8332178;28;20075;-62
2022/12/07 23:50:03;;;;;;;18.27;9.95;;;;;;;;;;8332346;28;20083;-62
2022/12/07 23:54:03;;;;;;;17.75;9.88;;;;;;;;;;8336272;28;20292;-62
2022/12/07 23:58:03;;;;;;;14.97;9.57;;;;;;;;;;8341979;28;20033;-62
